sensor_id;sensor_type;location;lat;lon;timestamp;pressure;altitude;pressure_sealevel;temperature;humidity
72038;BME280;59900;50.788;12.904;2023-02-26T00:01:37;96941.22;;;-2.62;96.95
72038;BME280;59900;50.788;12.904;2023-02-26T00:04:06;96943.63;;;-2.60;97.72
72038;BME280;59900;50.788;12.904;2023-02-26T00:06:36;96947.03;;;-2.60;97.32
72038;BME280;59900;50.788;12.904;2023-02-26T00:09:03;96946.22;;;-2.60;97.84
72038;BME280;59900;50.788;12.904;2023-02-26T00:11:29;96957.72;;;-2.64;97.58
72038;BME280;59900;50.788;12.904;2023-02-26T00:13:54;96953.63;;;-2.67;98.11
72038;BME280;59900;50.788;12.904;2023-02-26T00:18:51;96954.84;;;-2.71;98.46
72038;BME280;59900;50.788;12.904;2023-02-26T00:21:18;96964.16;;;-2.70;98.24
72038;BME280;59900;50.788;12.904;2023-02-26T00:23:43;96957.00;;;-2.66;98.63
72038;BME280;59900;50.788;12.904;2023-02-26T00:26:09;96964.72;;;-2.66;98.23
72038;BME280;59900;50.788;12.904;2023-02-26T00:28:35;96960.78;;;-2.70;97.66
72038;BME280;59900;50.788;12.904;2023-02-26T00:31:01;96959.97;;;-2.71;98.01
72038;BME280;59900;50.788;12.904;2023-02-26T00:33:26;96968.19;;;-2.77;97.31
72038;BME280;59900;50.788;12.904;2023-02-26T00:35:56;96974.03;;;-2.75;97.77
72038;BME280;59900;50.788;12.904;2023-02-26T00:38:25;96984.72;;;-2.70;98.02
72038;BME280;59900;50.788;12.904;2023-02-26T00:40:51;96979.47;;;-2.68;97.43
72038;BME280;59900;50.788;12.904;2023-02-26T00:43:20;96980.28;;;-2.68;97.53
72038;BME280;59900;50.788;12.904;2023-02-26T00:46:06;96982.31;;;-2.71;97.27
72038;BME280;59900;50.788;12.904;2023-02-26T00:51:28;96980.53;;;-2.71;97.10
72038;BME280;59900;50.788;12.904;2023-02-26T00:54:09;96980.81;;;-2.74;97.10
72038;BME280;59900;50.788;12.904;2023-02-26T00:56:37;96982.41;;;-2.73;97.06
72038;BME280;59900;50.788;12.904;2023-02-26T00:59:02;96981.38;;;-2.70;97.43
72038;BME280;59900;50.788;12.904;2023-02-26T01:01:27;96985.56;;;-2.69;97.49
72038;BME280;59900;50.788;12.904;2023-02-26T01:03:53;96991.50;;;-2.69;97.68
72038;BME280;59900;50.788;12.904;2023-02-26T01:06:20;96995.72;;;-2.68;97.42
72038;BME280;59900;50.788;12.904;2023-02-26T01:09:09;96996.28;;;-2.64;97.15
72038;BME280;59900;50.788;12.904;2023-02-26T01:11:37;96997.06;;;-2.64;97.14
72038;BME280;59900;50.788;12.904;2023-02-26T01:14:03;96993.16;;;-2.68;97.14
72038;BME280;59900;50.788;12.904;2023-02-26T01:16:34;96994.91;;;-2.68;97.25
72038;BME280;59900;50.788;12.904;2023-02-26T01:19:12;96996.81;;;-2.70;97.44
72038;BME280;59900;50.788;12.904;2023-02-26T01:21:44;96992.44;;;-2.70;97.83
72038;BME280;59900;50.788;12.904;2023-02-26T01:24:14;97000.63;;;-2.65;97.10
72038;BME280;59900;50.788;12.904;2023-02-26T01:26:40;96992.19;;;-2.67;97.47
72038;BME280;59900;50.788;12.904;2023-02-26T01:29:06;96995.22;;;-2.62;97.79
72038;BME280;59900;50.788;12.904;2023-02-26T01:31:48;96994.81;;;-2.57;97.43
72038;BME280;59900;50.788;12.904;2023-02-26T01:34:18;96988.59;;;-2.55;97.60
72038;BME280;59900;50.788;12.904;2023-02-26T01:36:53;96988.59;;;-2.55;97.10
72038;BME280;59900;50.788;12.904;2023-02-26T01:39:36;96996.56;;;-2.58;97.73
72038;BME280;59900;50.788;12.904;2023-02-26T01:42:17;96993.47;;;-2.61;98.24
72038;BME280;59900;50.788;12.904;2023-02-26T01:44:58;96991.56;;;-2.59;97.80
72038;BME280;59900;50.788;12.904;2023-02-26T01:47:32;96998.34;;;-2.58;97.65
72038;BME280;59900;50.788;12.904;2023-02-26T01:50:17;96994.00;;;-2.58;98.11
72038;BME280;59900;50.788;12.904;2023-02-26T01:55:12;97001.84;;;-2.59;98.88
72038;BME280;59900;50.788;12.904;2023-02-26T01:57:37;96997.06;;;-2.64;99.40
72038;BME280;59900;50.788;12.904;2023-02-26T02:00:03;97006.84;;;-2.67;99.71
72038;BME280;59900;50.788;12.904;2023-02-26T02:02:29;97006.84;;;-2.67;99.88
72038;BME280;59900;50.788;12.904;2023-02-26T02:04:54;97005.19;;;-2.68;99.81
72038;BME280;59900;50.788;12.904;2023-02-26T02:07:20;97010.19;;;-2.67;99.81
72038;BME280;59900;50.788;12.904;2023-02-26T02:09:45;97008.94;;;-2.72;99.30
72038;BME280;59900;50.788;12.904;2023-02-26T02:17:45;97013.97;;;-2.71;99.35
72038;BME280;59900;50.788;12.904;2023-02-26T02:20:26;97011.66;;;-2.74;99.62
72038;BME280;59900;50.788;12.904;2023-02-26T02:31:15;97023.31;;;-2.70;99.98
72038;BME280;59900;50.788;12.904;2023-02-26T02:36:49;97026.66;;;-2.58;99.91
72038;BME280;59900;50.788;12.904;2023-02-26T02:39:22;97022.78;;;-2.64;99.33
72038;BME280;59900;50.788;12.904;2023-02-26T02:41:56;97039.03;;;-2.63;99.16
72038;BME280;59900;50.788;12.904;2023-02-26T02:44:25;97034.03;;;-2.65;99.08
72038;BME280;59900;50.788;12.904;2023-02-26T02:46:53;97034.72;;;-2.63;99.08
72038;BME280;59900;50.788;12.904;2023-02-26T02:49:36;97038.38;;;-2.65;98.99
72038;BME280;59900;50.788;12.904;2023-02-26T02:52:14;97043.88;;;-2.70;98.72
72038;BME280;59900;50.788;12.904;2023-02-26T02:54:55;97046.69;;;-2.73;99.20
72038;BME280;59900;50.788;12.904;2023-02-26T02:57:27;97048.22;;;-2.70;99.47
72038;BME280;59900;50.788;12.904;2023-02-26T02:59:58;97055.28;;;-2.63;99.77
72038;BME280;59900;50.788;12.904;2023-02-26T03:02:48;97053.16;;;-2.58;99.63
72038;BME280;59900;50.788;12.904;2023-02-26T03:05:15;97062.13;;;-2.52;99.19
72038;BME280;59900;50.788;12.904;2023-02-26T03:07:48;97064.00;;;-2.54;99.38
72038;BME280;59900;50.788;12.904;2023-02-26T03:10:15;97068.91;;;-2.51;99.13
72038;BME280;59900;50.788;12.904;2023-02-26T03:12:41;97070.97;;;-2.45;99.08
72038;BME280;59900;50.788;12.904;2023-02-26T03:15:07;97076.69;;;-2.42;99.62
72038;BME280;59900;50.788;12.904;2023-02-26T03:17:38;97082.41;;;-2.38;99.26
72038;BME280;59900;50.788;12.904;2023-02-26T03:22:52;97090.38;;;-2.41;99.16
72038;BME280;59900;50.788;12.904;2023-02-26T03:25:28;97090.06;;;-2.48;99.04
72038;BME280;59900;50.788;12.904;2023-02-26T03:28:12;97096.38;;;-2.52;100.00
72038;BME280;59900;50.788;12.904;2023-02-26T03:30:46;97094.63;;;-2.51;100.00
72038;BME280;59900;50.788;12.904;2023-02-26T03:33:28;97103.59;;;-2.46;100.00
72038;BME280;59900;50.788;12.904;2023-02-26T03:36:10;97104.16;;;-2.42;99.95
72038;BME280;59900;50.788;12.904;2023-02-26T03:38:56;97111.19;;;-2.44;99.51
72038;BME280;59900;50.788;12.904;2023-02-26T03:41:29;97115.28;;;-2.42;99.61
72038;BME280;59900;50.788;12.904;2023-02-26T03:44:00;97119.47;;;-2.41;99.65
72038;BME280;59900;50.788;12.904;2023-02-26T03:46:31;97120.16;;;-2.39;99.85
72038;BME280;59900;50.788;12.904;2023-02-26T03:49:02;97123.81;;;-2.41;99.65
72038;BME280;59900;50.788;12.904;2023-02-26T03:51:29;97133.16;;;-2.40;99.70
72038;BME280;59900;50.788;12.904;2023-02-26T03:54:06;97133.16;;;-2.40;99.96
72038;BME280;59900;50.788;12.904;2023-02-26T03:56:40;97144.41;;;-2.41;99.63
72038;BME280;59900;50.788;12.904;2023-02-26T03:59:08;97143.00;;;-2.45;99.83
72038;BME280;59900;50.788;12.904;2023-02-26T04:01:53;97145.72;;;-2.47;100.00
72038;BME280;59900;50.788;12.904;2023-02-26T04:04:36;97150.47;;;-2.42;100.00
72038;BME280;59900;50.788;12.904;2023-02-26T04:07:09;97154.31;;;-2.37;100.00
72038;BME280;59900;50.788;12.904;2023-02-26T04:09:35;97155.13;;;-2.36;99.89
72038;BME280;59900;50.788;12.904;2023-02-26T04:12:01;97165.84;;;-2.31;100.00
72038;BME280;59900;50.788;12.904;2023-02-26T04:14:26;97159.09;;;-2.32;99.88
72038;BME280;59900;50.788;12.904;2023-02-26T04:16:51;97174.63;;;-2.34;99.81
72038;BME280;59900;50.788;12.904;2023-02-26T04:19:17;97160.94;;;-2.34;99.50
72038;BME280;59900;50.788;12.904;2023-02-26T04:21:42;97177.59;;;-2.38;99.56
72038;BME280;59900;50.788;12.904;2023-02-26T04:24:08;97167.66;;;-2.43;100.00
72038;BME280;59900;50.788;12.904;2023-02-26T04:26:34;97169.22;;;-2.51;100.00
72038;BME280;59900;50.788;12.904;2023-02-26T04:28:59;97177.94;;;-2.43;100.00
72038;BME280;59900;50.788;12.904;2023-02-26T04:31:24;97171.31;;;-2.45;100.00
72038;BME280;59900;50.788;12.904;2023-02-26T04:33:49;97167.91;;;-2.46;100.00
72038;BME280;59900;50.788;12.904;2023-02-26T04:36:15;97177.94;;;-2.43;100.00
72038;BME280;59900;50.788;12.904;2023-02-26T04:38:40;97169.31;;;-2.42;99.73
72038;BME280;59900;50.788;12.904;2023-02-26T04:41:06;97183.53;;;-2.38;99.68
72038;BME280;59900;50.788;12.904;2023-02-26T04:43:31;97191.25;;;-2.38;99.03
72038;BME280;59900;50.788;12.904;2023-02-26T04:45:57;97191.00;;;-2.35;99.42
72038;BME280;59900;50.788;12.904;2023-02-26T04:48:22;97196.72;;;-2.31;99.43
72038;BME280;59900;50.788;12.904;2023-02-26T04:50:47;97203.63;;;-2.32;99.15
72038;BME280;59900;50.788;12.904;2023-02-26T04:53:12;97200.25;;;-2.32;98.95
72038;BME280;59900;50.788;12.904;2023-02-26T04:55:38;97203.63;;;-2.32;99.47
72038;BME280;59900;50.788;12.904;2023-02-26T04:58:05;97212.56;;;-2.36;99.19
72038;BME280;59900;50.788;12.904;2023-02-26T05:00:31;97212.66;;;-2.37;100.00
72038;BME280;59900;50.788;12.904;2023-02-26T05:02:56;97208.34;;;-2.37;100.00
72038;BME280;59900;50.788;12.904;2023-02-26T05:05:21;97204.00;;;-2.36;99.77
72038;BME280;59900;50.788;12.904;2023-02-26T05:07:46;97226.34;;;-2.37;100.00
72038;BME280;59900;50.788;12.904;2023-02-26T05:10:12;97216.06;;;-2.37;99.78
72038;BME280;59900;50.788;12.904;2023-02-26T05:12:37;97228.00;;;-2.36;100.00
72038;BME280;59900;50.788;12.904;2023-02-26T05:15:03;97233.97;;;-2.35;100.00
72038;BME280;59900;50.788;12.904;2023-02-26T05:17:29;97233.97;;;-2.35;100.00
72038;BME280;59900;50.788;12.904;2023-02-26T05:19:54;97244.00;;;-2.32;100.00
72038;BME280;59900;50.788;12.904;2023-02-26T05:22:19;97240.38;;;-2.30;100.00
72038;BME280;59900;50.788;12.904;2023-02-26T05:24:44;97241.97;;;-2.29;100.00
72038;BME280;59900;50.788;12.904;2023-02-26T05:27:10;97247.25;;;-2.30;100.00
72038;BME280;59900;50.788;12.904;2023-02-26T05:29:36;97250.91;;;-2.33;100.00
72038;BME280;59900;50.788;12.904;2023-02-26T05:32:01;97246.94;;;-2.37;100.00
72038;BME280;59900;50.788;12.904;2023-02-26T05:34:27;97251.81;;;-2.34;100.00
72038;BME280;59900;50.788;12.904;2023-02-26T05:36:52;97252.75;;;-2.35;100.00
72038;BME280;59900;50.788;12.904;2023-02-26T05:39:18;97272.41;;;-2.34;100.00
72038;BME280;59900;50.788;12.904;2023-02-26T05:41:43;97264.69;;;-2.34;100.00
72038;BME280;59900;50.788;12.904;2023-02-26T05:44:10;97275.81;;;-2.33;100.00
72038;BME280;59900;50.788;12.904;2023-02-26T05:46:35;97282.47;;;-2.31;100.00
72038;BME280;59900;50.788;12.904;2023-02-26T05:49:01;97288.19;;;-2.27;100.00
72038;BME280;59900;50.788;12.904;2023-02-26T05:51:26;97280.56;;;-2.29;100.00
72038;BME280;59900;50.788;12.904;2023-02-26T05:53:52;97280.03;;;-2.32;99.84
72038;BME280;59900;50.788;12.904;2023-02-26T05:56:17;97302.94;;;-2.29;99.91
72038;BME280;59900;50.788;12.904;2023-02-26T05:58:43;97310.28;;;-2.24;100.00
72038;BME280;59900;50.788;12.904;2023-02-26T06:01:08;97301.75;;;-2.25;99.20
72038;BME280;59900;50.788;12.904;2023-02-26T06:03:34;97318.00;;;-2.24;98.93
72038;BME280;59900;50.788;12.904;2023-02-26T06:05:59;97312.63;;;-2.21;98.91
72038;BME280;59900;50.788;12.904;2023-02-26T06:08:24;97326.16;;;-2.19;98.86
72038;BME280;59900;50.788;12.904;2023-02-26T06:10:50;97327.81;;;-2.18;98.80
72038;BME280;59900;50.788;12.904;2023-02-26T06:13:16;97331.91;;;-2.16;98.66
72038;BME280;59900;50.788;12.904;2023-02-26T06:15:41;97332.47;;;-2.12;98.58
72038;BME280;59900;50.788;12.904;2023-02-26T06:18:07;97337.38;;;-2.09;98.04
72038;BME280;59900;50.788;12.904;2023-02-26T06:20:32;97343.09;;;-2.06;97.76
72038;BME280;59900;50.788;12.904;2023-02-26T06:22:58;97348.94;;;-2.04;97.60
72038;BME280;59900;50.788;12.904;2023-02-26T06:25:23;97351.97;;;-1.99;97.33
72038;BME280;59900;50.788;12.904;2023-02-26T06:27:48;97355.25;;;-1.97;97.29
72038;BME280;59900;50.788;12.904;2023-02-26T06:30:14;97365.06;;;-2.02;97.19
72038;BME280;59900;50.788;12.904;2023-02-26T06:32:39;97361.13;;;-2.06;97.29
72038;BME280;59900;50.788;12.904;2023-02-26T06:35:04;97361.47;;;-2.10;97.26
72038;BME280;59900;50.788;12.904;2023-02-26T06:37:30;97379.00;;;-2.04;97.77
72038;BME280;59900;50.788;12.904;2023-02-26T06:39:55;97381.47;;;-2.03;97.44
72038;BME280;59900;50.788;12.904;2023-02-26T06:42:21;97385.56;;;-2.00;97.92
72038;BME280;59900;50.788;12.904;2023-02-26T06:44:47;97385.66;;;-2.02;97.27
72038;BME280;59900;50.788;12.904;2023-02-26T06:47:12;97388.25;;;-2.02;97.70
72038;BME280;59900;50.788;12.904;2023-02-26T06:49:37;97391.63;;;-2.01;97.85
72038;BME280;59900;50.788;12.904;2023-02-26T06:52:02;97395.28;;;-2.04;97.58
72038;BME280;59900;50.788;12.904;2023-02-26T06:54:28;97406.16;;;-2.00;97.41
72038;BME280;59900;50.788;12.904;2023-02-26T06:56:53;97413.06;;;-2.01;97.28
72038;BME280;59900;50.788;12.904;2023-02-26T06:59:22;97410.34;;;-1.99;97.25
72038;BME280;59900;50.788;12.904;2023-02-26T07:01:47;97416.56;;;-2.02;97.07
72038;BME280;59900;50.788;12.904;2023-02-26T07:04:12;97420.53;;;-1.98;97.55
72038;BME280;59900;50.788;12.904;2023-02-26T07:06:37;97432.94;;;-1.92;97.45
72038;BME280;59900;50.788;12.904;2023-02-26T07:09:03;97444.16;;;-1.93;97.48
72038;BME280;59900;50.788;12.904;2023-02-26T07:11:28;97441.00;;;-1.96;97.51
72038;BME280;59900;50.788;12.904;2023-02-26T07:13:53;97426.63;;;-1.99;97.49
72038;BME280;59900;50.788;12.904;2023-02-26T07:16:19;97450.75;;;-2.00;97.29
72038;BME280;59900;50.788;12.904;2023-02-26T07:18:44;97456.94;;;-2.02;97.65
72038;BME280;59900;50.788;12.904;2023-02-26T07:21:09;97461.75;;;-1.98;97.21
72038;BME280;59900;50.788;12.904;2023-02-26T07:23:34;97468.66;;;-1.98;97.17
72038;BME280;59900;50.788;12.904;2023-02-26T07:26:00;97462.44;;;-1.96;96.79
72038;BME280;59900;50.788;12.904;2023-02-26T07:28:26;97472.63;;;-1.94;96.65
72038;BME280;59900;50.788;12.904;2023-02-26T07:30:53;97466.91;;;-1.98;96.40
72038;BME280;59900;50.788;12.904;2023-02-26T07:33:19;97469.47;;;-1.98;96.42
72038;BME280;59900;50.788;12.904;2023-02-26T07:35:44;97467.22;;;-2.02;96.26
72038;BME280;59900;50.788;12.904;2023-02-26T07:38:09;97470.75;;;-2.03;96.11
72038;BME280;59900;50.788;12.904;2023-02-26T07:40:34;97486.91;;;-2.01;96.09
72038;BME280;59900;50.788;12.904;2023-02-26T07:42:59;97492.06;;;-2.01;95.80
72038;BME280;59900;50.788;12.904;2023-02-26T07:45:25;97483.84;;;-1.95;96.43
72038;BME280;59900;50.788;12.904;2023-02-26T07:47:51;97501.88;;;-1.95;95.75
72038;BME280;59900;50.788;12.904;2023-02-26T07:50:17;97508.44;;;-1.91;95.97
72038;BME280;59900;50.788;12.904;2023-02-26T07:52:42;97503.28;;;-1.91;95.51
72038;BME280;59900;50.788;12.904;2023-02-26T07:55:08;97503.75;;;-1.86;95.80
72038;BME280;59900;50.788;12.904;2023-02-26T07:57:34;97510.66;;;-1.87;95.72
72038;BME280;59900;50.788;12.904;2023-02-26T07:59:59;97513.22;;;-1.87;95.10
72038;BME280;59900;50.788;12.904;2023-02-26T08:02:24;97527.16;;;-1.89;95.05
72038;BME280;59900;50.788;12.904;2023-02-26T08:04:50;97525.41;;;-1.89;95.22
72038;BME280;59900;50.788;12.904;2023-02-26T08:07:16;97518.25;;;-1.85;95.21
72038;BME280;59900;50.788;12.904;2023-02-26T08:09:41;97525.63;;;-1.81;94.90
72038;BME280;59900;50.788;12.904;2023-02-26T08:12:06;97535.22;;;-1.83;94.41
72038;BME280;59900;50.788;12.904;2023-02-26T08:14:31;97532.28;;;-1.78;94.59
72038;BME280;59900;50.788;12.904;2023-02-26T08:16:56;97532.03;;;-1.75;94.43
72038;BME280;59900;50.788;12.904;2023-02-26T08:19:22;97536.38;;;-1.76;94.11
72038;BME280;59900;50.788;12.904;2023-02-26T08:21:47;97542.81;;;-1.70;94.07
72038;BME280;59900;50.788;12.904;2023-02-26T08:24:13;97539.88;;;-1.65;94.22
72038;BME280;59900;50.788;12.904;2023-02-26T08:26:38;97547.38;;;-1.62;93.60
72038;BME280;59900;50.788;12.904;2023-02-26T08:29:03;97556.25;;;-1.66;92.22
72038;BME280;59900;50.788;12.904;2023-02-26T08:31:29;97559.06;;;-1.58;92.74
72038;BME280;59900;50.788;12.904;2023-02-26T08:33:56;97560.59;;;-1.56;92.88
72038;BME280;59900;50.788;12.904;2023-02-26T08:36:22;97568.78;;;-1.51;92.86
72038;BME280;59900;50.788;12.904;2023-02-26T08:38:48;97569.03;;;-1.54;92.31
72038;BME280;59900;50.788;12.904;2023-02-26T08:41:13;97560.00;;;-1.59;91.89
72038;BME280;59900;50.788;12.904;2023-02-26T08:43:39;97565.03;;;-1.47;92.47
72038;BME280;59900;50.788;12.904;2023-02-26T08:46:04;97579.41;;;-1.33;92.28
72038;BME280;59900;50.788;12.904;2023-02-26T08:48:30;97579.03;;;-1.29;91.91
72038;BME280;59900;50.788;12.904;2023-02-26T08:50:55;97578.28;;;-1.20;91.76
72038;BME280;59900;50.788;12.904;2023-02-26T08:53:20;97577.13;;;-1.16;91.11
72038;BME280;59900;50.788;12.904;2023-02-26T08:55:50;97585.53;;;-1.14;90.80
72038;BME280;59900;50.788;12.904;2023-02-26T08:58:16;97582.22;;;-1.04;90.17
72038;BME280;59900;50.788;12.904;2023-02-26T09:00:42;97592.53;;;-1.04;89.22
72038;BME280;59900;50.788;12.904;2023-02-26T09:03:07;97593.22;;;-1.02;88.26
72038;BME280;59900;50.788;12.904;2023-02-26T09:05:32;97601.44;;;-0.97;88.86
72038;BME280;59900;50.788;12.904;2023-02-26T09:07:57;97606.78;;;-0.89;87.86
72038;BME280;59900;50.788;12.904;2023-02-26T09:10:23;97604.47;;;-0.92;87.48
72038;BME280;59900;50.788;12.904;2023-02-26T09:12:48;97607.16;;;-0.94;88.09
72038;BME280;59900;50.788;12.904;2023-02-26T09:15:13;97608.06;;;-0.84;87.60
72038;BME280;59900;50.788;12.904;2023-02-26T09:17:40;97606.31;;;-0.83;86.53
72038;BME280;59900;50.788;12.904;2023-02-26T09:20:15;97618.44;;;-0.95;86.36
72038;BME280;59900;50.788;12.904;2023-02-26T09:22:41;97630.94;;;-0.90;86.84
72038;BME280;59900;50.788;12.904;2023-02-26T09:25:06;97630.78;;;-0.78;88.24
72038;BME280;59900;50.788;12.904;2023-02-26T09:27:32;97637.34;;;-0.74;86.63
72038;BME280;59900;50.788;12.904;2023-02-26T09:29:59;97635.31;;;-0.70;85.95
72038;BME280;59900;50.788;12.904;2023-02-26T09:32:24;97649.69;;;-0.77;85.38
72038;BME280;59900;50.788;12.904;2023-02-26T09:34:51;97652.22;;;-0.66;86.63
72038;BME280;59900;50.788;12.904;2023-02-26T09:37:16;97654.97;;;-0.58;85.66
72038;BME280;59900;50.788;12.904;2023-02-26T09:39:41;97662.78;;;-0.69;85.12
72038;BME280;59900;50.788;12.904;2023-02-26T09:44:53;97667.44;;;-0.63;86.42
72038;BME280;59900;50.788;12.904;2023-02-26T09:47:28;97675.13;;;-0.52;87.01
72038;BME280;59900;50.788;12.904;2023-02-26T09:50:00;97668.22;;;-0.51;85.39
72038;BME280;59900;50.788;12.904;2023-02-26T09:52:39;97676.03;;;-0.42;85.50
72038;BME280;59900;50.788;12.904;2023-02-26T09:55:16;97682.97;;;-0.42;85.37
72038;BME280;59900;50.788;12.904;2023-02-26T09:57:46;97677.88;;;-0.33;86.19
72038;BME280;59900;50.788;12.904;2023-02-26T10:00:17;97681.44;;;-0.45;84.06
72038;BME280;59900;50.788;12.904;2023-02-26T10:06:16;97685.84;;;-0.57;84.53
72038;BME280;59900;50.788;12.904;2023-02-26T10:09:00;97690.63;;;-0.52;84.85
72038;BME280;59900;50.788;12.904;2023-02-26T10:11:50;97691.13;;;-0.58;85.14
72038;BME280;59900;50.788;12.904;2023-02-26T10:14:22;97696.22;;;-0.68;85.76
72038;BME280;59900;50.788;12.904;2023-02-26T10:16:52;97701.00;;;-0.63;84.97
72038;BME280;59900;50.788;12.904;2023-02-26T10:19:24;97701.22;;;-0.66;85.24
72038;BME280;59900;50.788;12.904;2023-02-26T10:22:06;97700.78;;;-0.71;85.25
72038;BME280;59900;50.788;12.904;2023-02-26T10:24:43;97696.13;;;-0.77;85.32
72038;BME280;59900;50.788;12.904;2023-02-26T10:27:14;97700.25;;;-0.86;85.07
72038;BME280;59900;50.788;12.904;2023-02-26T10:29:59;97719.38;;;-0.99;85.77
72038;BME280;59900;50.788;12.904;2023-02-26T10:32:35;97724.19;;;-0.95;86.82
72038;BME280;59900;50.788;12.904;2023-02-26T10:35:13;97719.25;;;-0.98;86.17
72038;BME280;59900;50.788;12.904;2023-02-26T10:37:50;97721.25;;;-1.01;86.61
72038;BME280;59900;50.788;12.904;2023-02-26T10:40:37;97732.84;;;-0.96;86.75
72038;BME280;59900;50.788;12.904;2023-02-26T10:43:16;97732.03;;;-0.96;86.28
72038;BME280;59900;50.788;12.904;2023-02-26T10:49:08;97743.00;;;-0.72;86.53
72038;BME280;59900;50.788;12.904;2023-02-26T10:51:39;97734.78;;;-0.66;85.13
72038;BME280;59900;50.788;12.904;2023-02-26T10:54:22;97751.19;;;-0.67;84.81
72038;BME280;59900;50.788;12.904;2023-02-26T10:56:49;97742.66;;;-0.68;85.36
72038;BME280;59900;50.788;12.904;2023-02-26T10:59:14;97755.66;;;-0.69;85.09
72038;BME280;59900;50.788;12.904;2023-02-26T11:01:40;97745.94;;;-0.66;84.66
72038;BME280;59900;50.788;12.904;2023-02-26T11:04:14;97758.09;;;-0.57;85.18
72038;BME280;59900;50.788;12.904;2023-02-26T11:06:56;97755.16;;;-0.52;84.05
72038;BME280;59900;50.788;12.904;2023-02-26T11:09:25;97753.72;;;-0.45;84.48
72038;BME280;59900;50.788;12.904;2023-02-26T11:12:06;97755.94;;;-0.40;84.16
72038;BME280;59900;50.788;12.904;2023-02-26T11:14:42;97749.69;;;-0.27;83.97
72038;BME280;59900;50.788;12.904;2023-02-26T11:17:13;97752.63;;;-0.31;83.52
72038;BME280;59900;50.788;12.904;2023-02-26T11:19:51;97754.84;;;-0.27;83.33
72038;BME280;59900;50.788;12.904;2023-02-26T11:22:17;97752.28;;;-0.38;81.55
72038;BME280;59900;50.788;12.904;2023-02-26T11:24:45;97757.00;;;-0.43;81.17
72038;BME280;59900;50.788;12.904;2023-02-26T11:27:19;97754.56;;;-0.44;83.34
72038;BME280;59900;50.788;12.904;2023-02-26T11:29:53;97743.44;;;-0.56;81.32
72038;BME280;59900;50.788;12.904;2023-02-26T11:32:21;97760.06;;;-0.49;81.52
72038;BME280;59900;50.788;12.904;2023-02-26T11:34:49;97770.84;;;-0.44;82.38
72038;BME280;59900;50.788;12.904;2023-02-26T11:37:21;97762.59;;;-0.38;81.90
72038;BME280;59900;50.788;12.904;2023-02-26T11:39:58;97772.09;;;-0.27;82.80
72038;BME280;59900;50.788;12.904;2023-02-26T11:42:25;97771.03;;;-0.25;82.29
72038;BME280;59900;50.788;12.904;2023-02-26T11:44:52;97774.94;;;-0.30;81.10
72038;BME280;59900;50.788;12.904;2023-02-26T11:47:24;97770.94;;;-0.34;80.61
72038;BME280;59900;50.788;12.904;2023-02-26T11:49:52;97773.66;;;-0.47;80.60
72038;BME280;59900;50.788;12.904;2023-02-26T11:52:21;97760.22;;;-0.50;81.35
72038;BME280;59900;50.788;12.904;2023-02-26T11:54:56;97767.47;;;-0.56;81.98
72038;BME280;59900;50.788;12.904;2023-02-26T11:57:25;97776.25;;;-0.47;81.88
72038;BME280;59900;50.788;12.904;2023-02-26T11:59:53;97765.56;;;-0.42;82.35
72038;BME280;59900;50.788;12.904;2023-02-26T12:02:23;97773.09;;;-0.50;81.45
72038;BME280;59900;50.788;12.904;2023-02-26T12:04:51;97775.28;;;-0.35;82.72
72038;BME280;59900;50.788;12.904;2023-02-26T12:07:19;97776.72;;;-0.10;82.82
72038;BME280;59900;50.788;12.904;2023-02-26T12:09:46;97769.88;;;0.21;82.14
72038;BME280;59900;50.788;12.904;2023-02-26T12:15:14;97769.75;;;0.43;80.27
72038;BME280;59900;50.788;12.904;2023-02-26T12:18:02;97778.41;;;0.32;79.34
72038;BME280;59900;50.788;12.904;2023-02-26T12:20:45;97773.41;;;0.20;80.69
72038;BME280;59900;50.788;12.904;2023-02-26T12:23:32;97776.41;;;0.04;79.97
72038;BME280;59900;50.788;12.904;2023-02-26T12:26:17;97779.41;;;-0.12;81.21
72038;BME280;59900;50.788;12.904;2023-02-26T12:32:06;97786.00;;;-0.50;82.16
72038;BME280;59900;50.788;12.904;2023-02-26T12:40:00;97787.19;;;-0.54;83.47
72038;BME280;59900;50.788;12.904;2023-02-26T12:48:30;97790.53;;;-0.32;83.14
72038;BME280;59900;50.788;12.904;2023-02-26T12:56:47;97802.00;;;0.07;80.90
72038;BME280;59900;50.788;12.904;2023-02-26T13:00:22;97797.84;;;0.16;80.16
72038;BME280;59900;50.788;12.904;2023-02-26T13:02:54;97800.44;;;0.16;78.95
72038;BME280;59900;50.788;12.904;2023-02-26T13:08:38;97787.81;;;0.02;79.80
72038;BME280;59900;50.788;12.904;2023-02-26T13:11:27;97796.47;;;0.12;79.12
72038;BME280;59900;50.788;12.904;2023-02-26T13:14:27;97796.03;;;0.48;81.22
72038;BME280;59900;50.788;12.904;2023-02-26T13:17:16;97805.75;;;0.55;79.46
72038;BME280;59900;50.788;12.904;2023-02-26T13:19:49;97816.03;;;0.46;78.01
72038;BME280;59900;50.788;12.904;2023-02-26T13:22:23;97799.75;;;0.34;77.47
72038;BME280;59900;50.788;12.904;2023-02-26T13:24:59;97809.53;;;0.31;78.09
72038;BME280;59900;50.788;12.904;2023-02-26T13:27:30;97810.78;;;0.36;78.32
72038;BME280;59900;50.788;12.904;2023-02-26T13:30:19;97808.78;;;0.40;75.75
72038;BME280;59900;50.788;12.904;2023-02-26T13:32:47;97817.03;;;0.34;77.08
72038;BME280;59900;50.788;12.904;2023-02-26T13:35:20;97822.84;;;0.47;77.60
72038;BME280;59900;50.788;12.904;2023-02-26T13:37:58;97815.53;;;0.52;76.31
72038;BME280;59900;50.788;12.904;2023-02-26T13:48:32;97822.53;;;0.61;75.56
72038;BME280;59900;50.788;12.904;2023-02-26T13:51:14;97819.44;;;0.67;76.10
72038;BME280;59900;50.788;12.904;2023-02-26T13:53:53;97822.88;;;0.77;76.52
72038;BME280;59900;50.788;12.904;2023-02-26T13:56:43;97818.09;;;0.73;75.38
72038;BME280;59900;50.788;12.904;2023-02-26T14:06:59;97831.78;;;0.84;75.94
72038;BME280;59900;50.788;12.904;2023-02-26T14:12:01;97834.53;;;0.92;74.02
72038;BME280;59900;50.788;12.904;2023-02-26T14:14:38;97829.50;;;0.91;74.25
72038;BME280;59900;50.788;12.904;2023-02-26T14:19:36;97835.03;;;0.86;74.42
72038;BME280;59900;50.788;12.904;2023-02-26T14:22:17;97837.63;;;0.86;72.90
72038;BME280;59900;50.788;12.904;2023-02-26T14:24:51;97833.66;;;0.82;73.08
72038;BME280;59900;50.788;12.904;2023-02-26T14:29:59;97846.31;;;0.76;72.77
72038;BME280;59900;50.788;12.904;2023-02-26T14:32:30;97839.47;;;0.75;71.49